createdAt,value
2023-01-10T00:01:18.385Z,12.03
2023-01-10T00:08:19.984Z,12.01
2023-01-10T00:15:21.790Z,11.99
2023-01-10T00:22:25.194Z,12.00
2023-01-10T00:29:27.900Z,11.81
2023-01-10T00:36:29.552Z,11.80
2023-01-10T00:43:49.818Z,11.88
2023-01-10T00:50:51.561Z,11.86
2023-01-10T00:57:53.252Z,11.70
2023-01-10T01:04:54.886Z,11.70
2023-01-10T01:11:56.944Z,11.39
2023-01-10T01:18:58.582Z,11.57
2023-01-10T01:26:00.290Z,11.82
2023-01-10T01:33:01.976Z,11.98
2023-01-10T01:40:04.297Z,11.82
2023-01-10T01:47:07.642Z,11.79
2023-01-10T01:54:11.995Z,11.77
2023-01-10T02:01:13.670Z,11.83
2023-01-10T02:08:15.424Z,11.41
2023-01-10T02:15:17.110Z,11.74
2023-01-10T02:22:41.741Z,11.66
2023-01-10T02:29:46.316Z,11.61
2023-01-10T02:36:57.309Z,11.38
2023-01-10T02:44:10.627Z,11.53
2023-01-10T02:51:28.741Z,11.28
2023-01-10T02:58:58.328Z,11.46
2023-01-10T03:06:07.631Z,11.27
2023-01-10T03:13:19.675Z,11.45
2023-01-10T03:20:21.314Z,11.51
2023-01-10T03:27:45.116Z,11.43
2023-01-10T03:34:46.770Z,11.48
2023-01-10T03:41:58.668Z,11.55
2023-01-10T03:49:00.288Z,11.51
2023-01-10T03:56:01.952Z,11.51
2023-01-10T04:03:03.643Z,11.41
2023-01-10T04:10:05.979Z,11.57
2023-01-10T04:17:07.753Z,11.52
2023-01-10T04:24:09.448Z,11.58
2023-01-10T04:31:11.077Z,11.40
2023-01-10T04:38:12.805Z,11.34
2023-01-10T04:45:17.640Z,11.39
2023-01-10T04:52:19.270Z,11.64
2023-01-10T04:59:20.927Z,11.60
2023-01-10T05:06:23.241Z,11.55
2023-01-10T05:13:26.204Z,11.50
2023-01-10T05:20:27.855Z,11.47
2023-01-10T05:27:29.490Z,11.55
2023-01-10T05:34:31.314Z,11.57
2023-01-10T05:41:33.009Z,11.53
2023-01-10T05:48:34.692Z,11.38
2023-01-10T05:55:36.304Z,11.52
2023-01-10T06:02:38.105Z,11.41
2023-01-10T06:09:39.846Z,11.37
2023-01-10T06:16:41.973Z,11.40
2023-01-10T06:23:43.648Z,11.36
2023-01-10T06:30:45.321Z,11.33
2023-01-10T06:37:47.001Z,11.41
2023-01-10T06:44:48.623Z,11.35
2023-01-10T06:51:50.303Z,11.47
2023-01-10T06:58:52.053Z,11.52
2023-01-10T07:05:53.771Z,11.35
2023-01-10T07:12:55.791Z,11.48
2023-01-10T07:19:57.512Z,11.34
2023-01-10T07:26:59.118Z,11.47
2023-01-10T07:34:00.854Z,11.45
2023-01-10T07:41:03.516Z,11.39
2023-01-10T07:48:05.376Z,11.53
2023-01-10T07:55:07.304Z,11.54
2023-01-10T08:02:10.103Z,11.42
2023-01-10T08:09:11.840Z,11.49
2023-01-10T08:16:15.204Z,11.43
2023-01-10T08:23:17.457Z,11.52
2023-01-10T08:30:19.183Z,11.60
2023-01-10T08:37:20.740Z,11.42
2023-01-10T08:44:22.380Z,11.50
2023-01-10T08:51:23.972Z,11.69
2023-01-10T08:58:25.610Z,11.77
2023-01-10T09:05:28.338Z,11.55
2023-01-10T09:12:49.121Z,11.61
2023-01-10T09:19:50.870Z,11.91
2023-01-10T09:26:52.539Z,12.20
2023-01-10T09:33:54.303Z,12.13
2023-01-10T09:41:16.842Z,12.15
2023-01-10T09:48:29.162Z,12.33
2023-01-10T09:55:34.325Z,12.32
2023-01-10T10:02:37.606Z,12.12
2023-01-10T10:09:39.226Z,12.25
2023-01-10T10:16:55.906Z,12.48
2023-01-10T10:24:22.092Z,12.39
2023-01-10T10:31:51.513Z,12.53
2023-01-10T10:38:53.537Z,12.43
2023-01-10T10:45:57.563Z,12.48
2023-01-10T10:53:00.750Z,12.56
2023-01-10T11:00:02.662Z,12.80
2023-01-10T11:07:04.313Z,12.58
2023-01-10T11:14:07.206Z,12.54
2023-01-10T11:21:11.928Z,12.63
2023-01-10T11:28:13.618Z,12.59
2023-01-10T11:35:37.480Z,12.72
2023-01-10T11:42:39.091Z,12.66
2023-01-10T11:49:41.373Z,12.92
2023-01-10T11:56:43.579Z,13.08
2023-01-10T12:03:45.295Z,13.32
2023-01-10T12:10:46.900Z,13.46
2023-01-10T12:17:48.476Z,13.12
2023-01-10T12:24:50.102Z,13.18
2023-01-10T12:31:53.510Z,13.49
2023-01-10T12:39:06.541Z,13.33
2023-01-10T12:47:05.376Z,13.35
2023-01-10T12:54:04.096Z,13.29
2023-01-10T13:01:05.929Z,13.30
2023-01-10T13:08:11.999Z,13.31
2023-01-10T13:15:37.995Z,13.33
2023-01-10T13:22:39.578Z,13.25
2023-01-10T13:29:41.899Z,13.26
2023-01-10T13:36:57.558Z,13.17
2023-01-10T13:44:07.467Z,12.99
2023-01-10T13:51:17.902Z,13.05
2023-01-10T13:58:42.538Z,12.93
2023-01-10T14:05:48.285Z,12.82
2023-01-10T14:12:51.928Z,13.06
2023-01-10T14:20:06.464Z,13.01
2023-01-10T14:27:14.080Z,12.99
2023-01-10T14:34:36.742Z,12.83
2023-01-10T14:41:43.483Z,12.83
2023-01-10T14:48:51.592Z,12.32
2023-01-10T14:55:53.481Z,12.37
2023-01-10T15:02:55.219Z,12.44
2023-01-10T15:09:58.737Z,12.40
2023-01-10T15:17:02.465Z,12.50
2023-01-10T15:24:33.061Z,12.31
2023-01-10T15:31:38.368Z,12.31
2023-01-10T15:38:44.336Z,12.15
2023-01-10T15:45:49.295Z,12.47
2023-01-10T15:52:52.296Z,12.33
2023-01-10T15:59:54.668Z,12.43
2023-01-10T16:07:06.741Z,12.22
2023-01-10T16:14:08.874Z,12.24
2023-01-10T16:21:11.521Z,12.17
2023-01-10T16:28:14.807Z,12.11
2023-01-10T16:35:20.123Z,12.15
2023-01-10T16:42:40.431Z,12.19
2023-01-10T16:49:42.067Z,12.01
2023-01-10T16:56:45.186Z,12.03
2023-01-10T17:03:47.040Z,11.97
2023-01-10T17:10:56.646Z,11.90
2023-01-10T17:17:59.033Z,11.90
2023-01-10T17:25:00.683Z,11.92
2023-01-10T17:32:02.381Z,11.80
2023-01-10T17:39:04.132Z,11.76
2023-01-10T17:46:06.069Z,11.66
2023-01-10T17:53:07.749Z,11.71
2023-01-10T18:00:09.986Z,11.60
2023-01-10T18:07:13.041Z,11.62
2023-01-10T18:14:33.468Z,11.66
2023-01-10T18:21:35.110Z,11.61
2023-01-10T18:28:43.527Z,11.47
2023-01-10T18:35:47.430Z,11.62
2023-01-10T18:42:53.375Z,11.50
2023-01-10T18:49:54.965Z,11.63
2023-01-10T18:56:56.625Z,11.28
2023-01-10T19:03:58.328Z,11.27
2023-01-10T19:11:12.984Z,11.21
2023-01-10T19:18:15.947Z,11.05
2023-01-10T19:25:17.639Z,10.77
2023-01-10T19:32:19.267Z,11.06
2023-01-10T19:39:22.443Z,10.87
2023-01-10T19:46:26.913Z,10.81
2023-01-10T19:53:30.744Z,10.58
2023-01-10T20:00:34.419Z,10.74
2023-01-10T20:07:36.023Z,10.60
2023-01-10T20:14:37.639Z,10.58
2023-01-10T20:21:40.035Z,10.34
2023-01-10T20:28:41.662Z,10.50
2023-01-10T20:35:44.176Z,10.53
2023-01-10T20:42:49.778Z,10.35
2023-01-10T20:49:51.387Z,10.26
2023-01-10T20:56:53.348Z,10.18
2023-01-10T21:03:55.038Z,10.05
2023-01-10T21:10:57.142Z,9.98
2023-01-10T21:17:58.779Z,10.13
2023-01-10T21:25:00.416Z,9.80
2023-01-10T21:32:02.338Z,9.95
2023-01-10T21:39:04.034Z,9.89
2023-01-10T21:46:05.916Z,9.71
2023-01-10T21:53:07.619Z,9.69
2023-01-10T22:00:09.733Z,9.49
2023-01-10T22:07:14.296Z,9.19
2023-01-10T22:14:15.881Z,9.49
2023-01-10T22:21:19.617Z,9.41
2023-01-10T22:28:21.286Z,9.42
2023-01-10T22:35:26.056Z,9.23
2023-01-10T22:42:27.673Z,9.25
2023-01-10T22:49:29.324Z,8.94
2023-01-10T22:56:30.957Z,9.25
2023-01-10T23:03:33.112Z,8.99
2023-01-10T23:10:34.733Z,9.02
2023-01-10T23:17:36.382Z,9.40
2023-01-10T23:24:38.464Z,9.13
2023-01-10T23:31:40.120Z,9.29
2023-01-10T23:38:41.730Z,9.46
2023-01-10T23:45:43.868Z,9.20
2023-01-10T23:52:45.552Z,9.30
2023-01-10T23:59:47.105Z,9.32
